CheckWX is a tool to help pilots better visualize weather data.  It is not intended as a substitute for an official pre-flight weather briefing.

17:29:36 UTC

CYYT TAF
St. John's International Airport
St. John's, Canada
TAF AMD CYYT 241717Z 2417/2512 26015G25KT P6SM BKN008 TEMPO 2417/2419 FEW008 BKN025 FM241900 24015G25KT P6SM BKN025 TEMPO 2419/2501 BKN015 FM250100 26015G25KT P6SM SCT020 FM250500 26010G20KT P6SM SCT100 FM250900 27010KT P6SM BKN020 TEMPO 2509/2512 BKN008 BKN020 RMK NXT FCST BY 241800Z

Mar-24@
17:00 UTC

Mar-24 @ 17:00 UTC

Mar-24@
19:00 UTC

Mar-24 @ 19:00 UTC

TAF AMD CYYT 241717Z 2417/2512 26015G25KT P6SM BKN008
Wind
  • 260° at 15 KTS
  • {Gusting to 25 KTS
Cloud Levels
  • Broken at 800' AGL

Mar-24@
17:00 UTC

Mar-24 @ 17:00 UTC

Mar-24@
19:00 UTC

Mar-24 @ 19:00 UTC

TEMPO 2417/2419 FEW008 BKN025

Temporary

Temporary Changes expected for less than half the time period

Cloud Levels
  • Few at 800' AGL
  • Broken at 2,500' AGL

Mar-24@
19:00 UTC

Mar-24 @ 19:00 UTC

Mar-25@
01:00 UTC

Mar-25 @ 01:00 UTC

TEMPO 2419/2501 BKN015

Temporary

Temporary Changes expected for less than half the time period

Cloud Levels
  • Broken at 1,500' AGL

Mar-24@
19:00 UTC

Mar-24 @ 19:00 UTC

Mar-25@
01:00 UTC

Mar-25 @ 01:00 UTC

FM241900 24015G25KT P6SM BKN025

From

From Standard forecast or significant change

Wind
  • 240° at 15 KTS
  • {Gusting to 25 KTS
Cloud Levels
  • Broken at 2,500' AGL

Mar-25@
01:00 UTC

Mar-25 @ 01:00 UTC

Mar-25@
05:00 UTC

Mar-25 @ 05:00 UTC

FM250100 26015G25KT P6SM SCT020

From

From Standard forecast or significant change

Wind
  • 260° at 15 KTS
  • {Gusting to 25 KTS
Cloud Levels
  • Scattered at 2,000' AGL

Mar-25@
05:00 UTC

Mar-25 @ 05:00 UTC

Mar-25@
09:00 UTC

Mar-25 @ 09:00 UTC

FM250500 26010G20KT P6SM SCT100

From

From Standard forecast or significant change

Wind
  • 260° at 10 KTS
  • {Gusting to 20 KTS
Cloud Levels
  • Scattered at 10,000' AGL

Mar-25@
09:00 UTC

Mar-25 @ 09:00 UTC

Mar-25@
12:00 UTC

Mar-25 @ 12:00 UTC

FM250900 27010KT P6SM BKN020

From

From Standard forecast or significant change

Wind
  • 270° at 10 KTS
Cloud Levels
  • Broken at 2,000' AGL

Mar-25@
09:00 UTC

Mar-25 @ 09:00 UTC

Mar-25@
12:00 UTC

Mar-25 @ 12:00 UTC

TEMPO 2509/2512 BKN008 BKN020 RMK NXT FCST BY 241800Z

Temporary

Temporary Changes expected for less than half the time period

Cloud Levels
  • Broken at 800' AGL
  • Broken at 2,000' AGL